createdAt,value
2017-12-26T00:00:07.010Z,10.03
2017-12-26T00:02:34.604Z,9.20
2017-12-26T00:05:02.194Z,8.87
2017-12-26T00:07:29.746Z,10.03
2017-12-26T00:09:57.350Z,7.87
2017-12-26T00:12:25.005Z,8.50
2017-12-26T00:14:52.606Z,10.57
2017-12-26T00:17:20.261Z,8.97
2017-12-26T00:19:47.949Z,7.20
2017-12-26T00:22:15.549Z,7.90
2017-12-26T00:24:43.145Z,8.70
2017-12-26T00:27:12.458Z,9.37
2017-12-26T00:29:40.614Z,10.83
2017-12-26T00:32:08.346Z,10.53
2017-12-26T00:34:35.921Z,9.53
2017-12-26T00:37:03.492Z,12.00
2017-12-26T00:39:31.131Z,9.27
2017-12-26T00:41:58.743Z,9.73
2017-12-26T00:44:26.304Z,11.93
2017-12-26T00:46:53.897Z,9.20
2017-12-26T00:49:22.285Z,12.10
2017-12-26T00:51:50.677Z,9.30
2017-12-26T00:54:19.023Z,8.00
2017-12-26T00:56:46.611Z,10.63
2017-12-26T00:59:14.947Z,10.50
2017-12-26T01:01:42.510Z,13.80
2017-12-26T01:04:10.089Z,8.47
2017-12-26T01:06:37.794Z,8.23
2017-12-26T01:09:05.401Z,13.60
2017-12-26T01:11:32.957Z,9.47
2017-12-26T01:14:00.536Z,10.03
2017-12-26T01:16:28.188Z,11.40
2017-12-26T01:18:55.782Z,11.17
2017-12-26T01:21:23.361Z,8.00
2017-12-26T01:23:51.155Z,11.63
2017-12-26T01:26:18.740Z,11.67
2017-12-26T01:28:46.306Z,14.10
2017-12-26T01:31:13.897Z,10.10
2017-12-26T01:33:41.457Z,12.20
2017-12-26T01:36:09.039Z,12.93
2017-12-26T01:38:37.409Z,11.33
2017-12-26T01:41:04.974Z,13.30
2017-12-26T01:43:32.574Z,17.53
2017-12-26T01:46:12.071Z,14.60
2017-12-26T01:48:39.633Z,13.27
2017-12-26T01:51:07.234Z,13.17
2017-12-26T01:53:34.823Z,15.70
2017-12-26T01:56:02.451Z,11.47
2017-12-26T01:58:30.099Z,12.33
2017-12-26T02:00:57.663Z,11.03
2017-12-26T02:03:25.229Z,14.20
2017-12-26T02:05:52.892Z,13.30
2017-12-26T02:08:20.480Z,14.77
2017-12-26T02:10:48.026Z,16.43
2017-12-26T02:13:15.606Z,13.53
2017-12-26T02:15:43.945Z,17.63
2017-12-26T02:18:11.527Z,16.23
2017-12-26T02:20:39.078Z,11.63
2017-12-26T02:23:06.663Z,15.37
2017-12-26T02:25:34.228Z,13.57
2017-12-26T02:28:01.829Z,10.30
2017-12-26T02:30:29.388Z,15.10
2017-12-26T02:32:56.976Z,14.10
2017-12-26T02:35:24.554Z,12.27
2017-12-26T02:37:52.136Z,11.50
2017-12-26T02:40:20.471Z,13.37
2017-12-26T02:42:48.093Z,16.13
2017-12-26T02:45:16.484Z,13.17
2017-12-26T02:47:44.062Z,13.37
2017-12-26T02:50:11.640Z,10.93
2017-12-26T02:52:39.222Z,10.07
2017-12-26T02:55:06.892Z,12.27
2017-12-26T02:57:34.465Z,15.13
2017-12-26T03:00:02.824Z,10.67
2017-12-26T03:02:30.424Z,15.40
2017-12-26T03:04:59.618Z,14.83
2017-12-26T03:07:27.981Z,13.17
2017-12-26T03:09:56.315Z,14.50
2017-12-26T03:12:23.996Z,11.80
2017-12-26T03:14:51.556Z,10.13
2017-12-26T03:17:19.139Z,14.50
2017-12-26T03:19:46.700Z,9.30
2017-12-26T03:22:14.263Z,11.07
2017-12-26T03:24:41.950Z,16.57
2017-12-26T03:27:09.542Z,13.77
2017-12-26T03:29:37.947Z,14.20
2017-12-26T03:32:05.558Z,16.40
2017-12-26T03:34:33.113Z,16.43
2017-12-26T03:37:00.706Z,17.63
2017-12-26T03:39:28.269Z,12.17
2017-12-26T03:41:55.856Z,16.53
2017-12-26T03:44:23.406Z,17.70
2017-12-26T03:46:51.004Z,16.90
2017-12-26T03:49:19.426Z,14.93
2017-12-26T03:51:46.997Z,14.10
2017-12-26T03:54:14.634Z,21.87
2017-12-26T03:56:42.246Z,11.57
2017-12-26T03:59:09.809Z,14.87
2017-12-26T04:01:37.626Z,14.57
2017-12-26T04:04:05.391Z,19.00
2017-12-26T04:06:32.950Z,15.33
2017-12-26T04:09:00.549Z,13.93
2017-12-26T04:11:28.134Z,15.27
2017-12-26T04:13:56.494Z,15.13
2017-12-26T04:16:24.046Z,14.23
2017-12-26T04:18:51.726Z,12.93
2017-12-26T04:21:19.287Z,13.40
2017-12-26T04:23:46.866Z,14.40
2017-12-26T04:26:15.230Z,14.70
2017-12-26T04:28:42.798Z,13.80
2017-12-26T04:31:11.134Z,14.90
2017-12-26T04:33:38.740Z,15.90
2017-12-26T04:36:07.094Z,14.93
2017-12-26T04:38:34.633Z,14.47
2017-12-26T04:41:02.215Z,17.57
2017-12-26T04:43:29.799Z,14.07
2017-12-26T04:45:57.533Z,17.40
2017-12-26T04:48:25.090Z,16.53
2017-12-26T04:50:52.677Z,16.40
2017-12-26T05:06:21.026Z,13.17
2017-12-26T05:08:48.582Z,14.80
2017-12-26T05:11:16.149Z,15.47
2017-12-26T05:13:43.705Z,18.83
2017-12-26T05:16:11.539Z,16.47
2017-12-26T05:18:39.099Z,14.50
2017-12-26T05:21:06.710Z,14.43
2017-12-26T05:23:34.265Z,15.83
2017-12-26T05:26:01.829Z,16.60
2017-12-26T05:28:29.482Z,9.87
2017-12-26T05:30:57.110Z,12.33
2017-12-26T05:33:25.440Z,13.23
2017-12-26T05:35:53.031Z,11.87
2017-12-26T05:38:21.361Z,14.50
2017-12-26T05:40:48.917Z,11.03
2017-12-26T05:43:16.504Z,10.97
2017-12-26T05:45:44.085Z,11.80
2017-12-26T05:48:12.413Z,13.63
2017-12-26T05:50:40.101Z,13.30
2017-12-26T05:53:07.685Z,16.37
2017-12-26T05:55:36.042Z,12.50
2017-12-26T05:58:03.594Z,8.50
2017-12-26T06:00:31.156Z,13.70
2017-12-26T06:02:58.728Z,13.20
2017-12-26T06:05:26.337Z,10.80
2017-12-26T06:07:53.989Z,14.33
2017-12-26T06:10:21.563Z,11.73
2017-12-26T06:12:49.122Z,21.60
2017-12-26T06:15:16.830Z,11.77
2017-12-26T06:17:44.401Z,15.50
2017-12-26T06:20:11.966Z,11.87
2017-12-26T06:22:39.550Z,12.57
2017-12-26T06:25:07.103Z,9.20
2017-12-26T06:27:35.401Z,9.50
2017-12-26T06:30:02.999Z,10.93
2017-12-26T06:32:30.575Z,12.63
2017-12-26T06:34:58.141Z,12.73
2017-12-26T06:37:25.705Z,11.43
2017-12-26T06:39:53.298Z,12.90
2017-12-26T06:42:20.958Z,10.70
2017-12-26T06:44:49.275Z,15.40
2017-12-26T06:47:16.859Z,13.03
2017-12-26T06:49:44.418Z,16.40
2017-12-26T06:52:11.973Z,15.33
2017-12-26T06:54:39.554Z,10.70
2017-12-26T06:57:07.996Z,14.77
2017-12-26T06:59:35.568Z,14.93
2017-12-26T07:02:03.169Z,13.63
2017-12-26T07:04:31.526Z,15.83
2017-12-26T07:06:59.189Z,14.00
2017-12-26T07:09:26.773Z,9.70
2017-12-26T07:11:55.090Z,11.60
2017-12-26T07:14:22.687Z,16.20
2017-12-26T07:16:50.260Z,12.90
2017-12-26T07:19:17.874Z,11.77
2017-12-26T07:21:51.121Z,13.07
2017-12-26T07:24:19.448Z,9.60
2017-12-26T07:26:47.032Z,11.50
2017-12-26T07:29:14.588Z,9.50
2017-12-26T07:31:42.305Z,12.57
2017-12-26T07:34:09.873Z,14.23
2017-12-26T07:36:37.448Z,12.60
2017-12-26T07:39:05.019Z,10.97
2017-12-26T07:41:32.651Z,11.50
2017-12-26T07:44:00.962Z,11.70
2017-12-26T07:46:28.545Z,13.83
2017-12-26T07:48:56.138Z,11.37
2017-12-26T07:51:24.509Z,9.60
2017-12-26T07:53:52.845Z,13.50
2017-12-26T07:56:20.419Z,10.20
2017-12-26T07:58:47.982Z,11.50
2017-12-26T08:01:15.552Z,11.93
2017-12-26T08:03:43.113Z,9.97
2017-12-26T08:06:10.675Z,8.70
2017-12-26T08:08:38.262Z,7.87
2017-12-26T08:11:06.657Z,6.70
2017-12-26T08:13:34.252Z,10.37
2017-12-26T08:16:01.826Z,11.83
2017-12-26T08:18:29.419Z,5.63
2017-12-26T08:20:57.750Z,10.73
2017-12-26T08:23:25.310Z,6.10
2017-12-26T08:25:52.910Z,5.20
2017-12-26T08:28:20.483Z,4.50
2017-12-26T08:30:48.830Z,8.73
2017-12-26T08:33:16.404Z,6.70
2017-12-26T08:35:43.980Z,5.63
2017-12-26T08:38:12.406Z,5.80
2017-12-26T08:40:40.031Z,4.27
2017-12-26T08:43:08.417Z,3.83
2017-12-26T08:45:36.169Z,2.40
2017-12-26T08:48:04.528Z,2.30
2017-12-26T08:50:32.109Z,2.40
2017-12-26T08:53:00.451Z,2.83
2017-12-26T08:55:28.020Z,6.60
2017-12-26T08:57:55.598Z,2.47
2017-12-26T09:00:23.181Z,2.63
2017-12-26T09:02:51.504Z,4.07
2017-12-26T09:05:19.084Z,1.70
2017-12-26T09:07:46.670Z,2.23
2017-12-26T09:10:15.016Z,3.70
2017-12-26T09:12:42.579Z,2.73
2017-12-26T09:15:10.740Z,1.83
2017-12-26T09:17:38.313Z,2.60
2017-12-26T09:20:05.898Z,4.07
2017-12-26T09:22:33.520Z,1.70
2017-12-26T09:25:01.066Z,1.50
2017-12-26T09:27:29.403Z,1.77
2017-12-26T09:29:57.747Z,3.17
2017-12-26T09:32:25.344Z,2.70
2017-12-26T09:34:53.674Z,2.30
2017-12-26T09:37:21.255Z,1.70
2017-12-26T09:39:48.900Z,2.17
2017-12-26T09:42:16.501Z,1.80
2017-12-26T09:44:44.099Z,1.90
2017-12-26T09:47:11.668Z,1.70
2017-12-26T09:49:39.270Z,1.63
2017-12-26T09:52:06.858Z,2.17
2017-12-26T09:54:35.187Z,2.00
2017-12-26T09:57:02.762Z,1.90
2017-12-26T09:59:30.318Z,3.00
2017-12-26T10:01:57.869Z,3.20
2017-12-26T10:04:25.448Z,3.23
2017-12-26T10:06:53.023Z,1.63
2017-12-26T10:09:20.737Z,1.70
2017-12-26T10:11:49.377Z,1.67
2017-12-26T10:14:16.983Z,2.40
2017-12-26T10:16:44.539Z,2.20
2017-12-26T10:19:12.112Z,3.37
2017-12-26T10:21:39.679Z,1.80
2017-12-26T10:24:07.252Z,2.17
2017-12-26T10:26:34.875Z,2.30
2017-12-26T10:29:02.435Z,1.83
2017-12-26T10:31:29.992Z,1.80
2017-12-26T10:33:58.465Z,1.80
2017-12-26T10:36:26.800Z,6.27
2017-12-26T10:38:54.374Z,2.07
2017-12-26T10:41:21.973Z,1.77
2017-12-26T10:43:49.622Z,2.63
2017-12-26T10:46:17.986Z,6.73
2017-12-26T10:48:45.566Z,2.80
2017-12-26T10:51:13.926Z,2.63
2017-12-26T10:53:41.563Z,2.23
2017-12-26T10:56:09.143Z,2.57
2017-12-26T10:58:36.743Z,2.80
2017-12-26T11:01:05.091Z,1.93
2017-12-26T11:03:32.703Z,2.30
2017-12-26T11:06:01.044Z,3.80
2017-12-26T11:08:29.385Z,2.80
2017-12-26T11:10:57.012Z,3.23
2017-12-26T11:13:24.623Z,3.03
2017-12-26T11:15:52.214Z,2.20
2017-12-26T11:18:20.555Z,1.70
2017-12-26T11:20:48.324Z,3.50
2017-12-26T11:23:16.031Z,4.33
2017-12-26T11:25:43.705Z,4.97
2017-12-26T11:28:11.357Z,2.60
2017-12-26T11:30:38.940Z,6.30
2017-12-26T11:33:07.309Z,2.30
2017-12-26T11:35:34.871Z,4.27
2017-12-26T11:38:02.489Z,3.13
2017-12-26T11:40:30.078Z,3.30
2017-12-26T11:42:58.501Z,4.37
2017-12-26T11:45:26.083Z,6.37
2017-12-26T11:47:53.670Z,3.30
2017-12-26T11:50:22.036Z,4.13
2017-12-26T11:52:49.574Z,3.00
2017-12-26T11:55:17.162Z,3.00
2017-12-26T11:57:45.487Z,4.57
2017-12-26T12:00:13.062Z,9.83
2017-12-26T12:02:40.688Z,2.93
2017-12-26T12:05:08.255Z,4.37
2017-12-26T12:07:35.818Z,4.47
2017-12-26T12:10:03.432Z,5.20
2017-12-26T12:12:31.002Z,3.77
2017-12-26T12:14:58.579Z,6.17
2017-12-26T12:17:26.978Z,2.83
2017-12-26T12:19:54.546Z,2.83
2017-12-26T12:22:22.127Z,2.73
2017-12-26T12:24:49.723Z,5.40
2017-12-26T12:27:17.305Z,3.43
2017-12-26T12:29:45.627Z,5.20
2017-12-26T12:32:13.237Z,3.37
2017-12-26T12:34:41.566Z,4.20
2017-12-26T12:37:09.124Z,4.43
2017-12-26T12:39:36.761Z,3.40
2017-12-26T12:42:04.372Z,2.70
2017-12-26T12:44:31.946Z,20.37
2017-12-26T12:46:59.543Z,7.97
2017-12-26T12:49:27.115Z,2.20
2017-12-26T12:51:54.727Z,4.03
2017-12-26T12:54:22.304Z,3.70
2017-12-26T12:56:50.656Z,4.87
2017-12-26T12:59:18.253Z,4.57
2017-12-26T13:01:46.630Z,3.40
2017-12-26T13:04:15.011Z,4.80
2017-12-26T13:06:43.328Z,5.73
2017-12-26T13:09:10.902Z,8.17
2017-12-26T13:11:38.498Z,3.20
2017-12-26T13:14:06.076Z,6.07
2017-12-26T13:16:34.443Z,4.47
2017-12-26T13:19:02.813Z,4.93
2017-12-26T13:21:30.402Z,5.53
2017-12-26T13:23:57.999Z,3.60
2017-12-26T13:26:25.606Z,6.00
2017-12-26T13:28:53.962Z,12.47
2017-12-26T13:31:21.547Z,5.23
2017-12-26T13:33:49.872Z,7.87
2017-12-26T13:36:17.477Z,3.20
2017-12-26T13:38:45.118Z,2.57
2017-12-26T13:41:12.718Z,6.13
2017-12-26T13:43:41.041Z,5.20
2017-12-26T13:46:08.637Z,8.83
2017-12-26T13:48:39.237Z,4.70
2017-12-26T13:51:06.918Z,5.27
2017-12-26T13:53:34.507Z,4.37
2017-12-26T13:56:08.842Z,5.10
2017-12-26T13:58:36.461Z,4.63
2017-12-26T14:01:04.038Z,4.80
2017-12-26T14:03:35.038Z,6.80
2017-12-26T14:06:02.584Z,2.43
2017-12-26T14:08:30.749Z,6.90
2017-12-26T14:10:59.085Z,9.47
2017-12-26T14:13:26.691Z,5.80
2017-12-26T14:15:54.294Z,5.20
2017-12-26T14:18:21.872Z,4.17
2017-12-26T14:20:55.842Z,7.17
2017-12-26T14:23:23.599Z,7.63
2017-12-26T14:25:51.147Z,5.83
2017-12-26T14:28:18.819Z,3.47
2017-12-26T14:30:46.383Z,4.70
2017-12-26T14:33:13.946Z,4.03
2017-12-26T14:35:41.509Z,6.03
2017-12-26T14:38:09.121Z,4.60
2017-12-26T14:40:36.685Z,5.20
2017-12-26T14:43:04.270Z,9.30
2017-12-26T14:45:33.004Z,4.37
2017-12-26T14:48:01.423Z,3.27
2017-12-26T14:50:29.766Z,6.40
2017-12-26T14:52:57.399Z,5.70
2017-12-26T14:55:25.018Z,4.40
2017-12-26T14:57:52.579Z,6.67
2017-12-26T15:00:20.921Z,6.90
2017-12-26T15:02:48.499Z,4.93
2017-12-26T15:05:16.101Z,7.63
2017-12-26T15:07:44.431Z,3.80
2017-12-26T15:10:12.015Z,4.00
2017-12-26T15:12:39.596Z,5.80
2017-12-26T15:15:07.943Z,8.30
2017-12-26T15:17:35.504Z,4.77
2017-12-26T15:20:03.094Z,4.93
2017-12-26T15:22:31.426Z,5.00
2017-12-26T15:24:59.023Z,3.90
2017-12-26T15:27:29.730Z,6.60
2017-12-26T15:29:57.324Z,9.67
2017-12-26T15:32:25.663Z,5.40
2017-12-26T15:34:53.230Z,11.60
2017-12-26T15:37:20.869Z,7.07
2017-12-26T15:39:48.535Z,5.43
2017-12-26T15:42:16.121Z,9.27
2017-12-26T15:44:43.712Z,6.60
2017-12-26T15:47:12.051Z,12.93
2017-12-26T15:49:39.605Z,7.73
2017-12-26T15:52:07.182Z,6.40
2017-12-26T15:54:34.745Z,10.73
2017-12-26T15:57:02.440Z,5.23
2017-12-26T15:59:30.750Z,3.57
2017-12-26T16:01:58.348Z,6.23
2017-12-26T16:04:25.949Z,5.37
2017-12-26T16:06:53.604Z,4.77
2017-12-26T16:09:21.941Z,4.63
2017-12-26T16:11:49.520Z,8.07
2017-12-26T16:14:17.154Z,5.97
2017-12-26T16:16:44.705Z,7.57
2017-12-26T16:19:12.313Z,6.67
2017-12-26T16:21:39.901Z,7.80
2017-12-26T16:24:07.490Z,7.80
2017-12-26T16:26:35.079Z,9.20
2017-12-26T16:29:02.714Z,12.00
2017-12-26T16:31:30.282Z,4.50
2017-12-26T16:33:57.857Z,6.57
2017-12-26T16:36:25.419Z,8.83
2017-12-26T16:38:53.002Z,3.67
2017-12-26T16:41:21.344Z,6.53
2017-12-26T16:43:49.026Z,9.53
2017-12-26T16:46:16.761Z,4.73
2017-12-26T16:48:48.199Z,4.73
2017-12-26T16:51:15.794Z,7.70
2017-12-26T16:53:43.374Z,5.90
2017-12-26T16:56:10.957Z,4.77
2017-12-26T16:58:38.546Z,5.83
2017-12-26T17:01:16.069Z,4.40
2017-12-26T17:03:43.654Z,6.73
2017-12-26T17:06:11.252Z,6.80
2017-12-26T17:08:38.842Z,4.43
2017-12-26T17:11:06.436Z,4.90
2017-12-26T17:13:34.006Z,8.20
2017-12-26T17:16:02.323Z,3.53
2017-12-26T17:18:29.905Z,8.77
2017-12-26T17:20:57.543Z,4.47
2017-12-26T17:23:25.133Z,6.10
2017-12-26T17:25:52.720Z,4.07
2017-12-26T17:28:20.298Z,4.80
2017-12-26T17:30:49.312Z,6.77
2017-12-26T17:33:16.901Z,7.43
2017-12-26T17:35:44.486Z,8.30
2017-12-26T17:38:20.261Z,5.97
2017-12-26T17:40:48.800Z,3.33
2017-12-26T17:43:16.387Z,5.70
2017-12-26T17:45:43.956Z,5.33
2017-12-26T17:48:11.597Z,3.90
2017-12-26T17:50:39.184Z,3.10
2017-12-26T17:53:16.709Z,5.10
2017-12-26T17:55:44.522Z,9.33
2017-12-26T17:58:12.134Z,4.17
2017-12-26T18:00:39.694Z,4.43
2017-12-26T18:03:07.254Z,8.30
2017-12-26T18:05:34.859Z,4.87
2017-12-26T18:08:07.812Z,9.50
2017-12-26T18:10:36.407Z,5.67
2017-12-26T18:13:03.945Z,6.73
2017-12-26T18:15:31.758Z,5.87
2017-12-26T18:17:59.310Z,4.83
2017-12-26T18:20:26.889Z,5.10
2017-12-26T18:22:54.471Z,6.70
2017-12-26T18:25:22.832Z,3.83
2017-12-26T18:27:50.422Z,3.87
2017-12-26T18:30:18.752Z,2.63
2017-12-26T18:32:46.328Z,3.80
2017-12-26T18:35:13.890Z,6.77
2017-12-26T18:37:41.523Z,7.93
2017-12-26T18:40:09.073Z,2.43
2017-12-26T18:42:37.377Z,5.47
2017-12-26T18:45:04.951Z,6.07
2017-12-26T18:47:32.542Z,5.03
2017-12-26T18:50:00.872Z,3.23
2017-12-26T18:52:28.441Z,4.47
2017-12-26T18:54:56.033Z,6.97
2017-12-26T18:57:27.434Z,3.90
2017-12-26T18:59:55.033Z,2.87
2017-12-26T19:02:22.740Z,4.50
2017-12-26T19:04:50.323Z,4.77
2017-12-26T19:07:17.912Z,4.27
2017-12-26T19:09:45.584Z,5.00
2017-12-26T19:12:13.164Z,3.97
2017-12-26T19:14:42.681Z,6.03
2017-12-26T19:17:10.270Z,2.77
2017-12-26T19:19:37.859Z,4.47
2017-12-26T19:22:05.420Z,5.50
2017-12-26T19:24:33.073Z,3.00
2017-12-26T19:27:00.632Z,6.90
2017-12-26T19:29:28.220Z,4.20
2017-12-26T19:31:55.790Z,2.50
2017-12-26T19:34:24.110Z,2.63
2017-12-26T19:36:51.681Z,4.70
2017-12-26T19:39:19.245Z,4.67
2017-12-26T19:41:46.831Z,7.63
2017-12-26T19:44:14.434Z,6.60
2017-12-26T19:46:42.791Z,7.60
2017-12-26T19:49:10.501Z,5.80
2017-12-26T19:51:38.098Z,6.40
2017-12-26T19:54:05.732Z,3.50
2017-12-26T19:56:33.313Z,8.87
2017-12-26T19:59:00.898Z,3.87
2017-12-26T20:01:28.453Z,2.90
2017-12-26T20:03:56.144Z,8.20
2017-12-26T20:06:24.492Z,8.43
2017-12-26T20:09:05.044Z,3.00
2017-12-26T20:11:32.917Z,2.67
2017-12-26T20:14:00.507Z,6.20
2017-12-26T20:16:28.991Z,7.40
2017-12-26T20:18:57.384Z,8.33
2017-12-26T20:21:25.767Z,5.93
2017-12-26T20:23:58.115Z,4.10
2017-12-26T20:26:25.954Z,3.93
2017-12-26T20:28:56.473Z,3.63
2017-12-26T20:31:24.047Z,4.63
2017-12-26T20:33:51.617Z,5.60
2017-12-26T20:36:19.278Z,2.60
2017-12-26T20:38:46.863Z,5.03
2017-12-26T20:41:15.296Z,7.20
2017-12-26T20:43:42.888Z,6.53
2017-12-26T20:46:10.454Z,4.90
2017-12-26T20:48:38.016Z,3.37
2017-12-26T20:51:05.623Z,6.77
2017-12-26T20:53:33.233Z,4.60
2017-12-26T20:56:00.992Z,3.50
2017-12-26T20:58:28.611Z,3.63
2017-12-26T21:00:56.460Z,4.40
2017-12-26T21:03:24.229Z,5.33
2017-12-26T21:05:51.795Z,3.67
2017-12-26T21:08:19.400Z,6.60
2017-12-26T21:10:46.981Z,2.97
2017-12-26T21:13:14.699Z,2.13
2017-12-26T21:15:42.281Z,6.90
2017-12-26T21:18:09.878Z,3.33
2017-12-26T21:20:38.293Z,9.33
2017-12-26T21:23:05.883Z,3.63
2017-12-26T21:25:33.598Z,5.63
2017-12-26T21:28:01.310Z,6.00
2017-12-26T21:30:28.895Z,4.03
2017-12-26T21:32:56.516Z,6.53
2017-12-26T21:35:24.255Z,4.57
2017-12-26T21:37:51.871Z,4.83
2017-12-26T21:40:19.493Z,5.37
2017-12-26T21:42:47.081Z,5.07
2017-12-26T21:45:14.673Z,6.57
2017-12-26T21:47:43.022Z,6.37
2017-12-26T21:50:10.614Z,8.53
2017-12-26T21:52:38.201Z,8.73
2017-12-26T21:55:05.797Z,3.80
2017-12-26T21:57:33.403Z,9.60
2017-12-26T22:00:00.991Z,3.83
2017-12-26T22:02:28.620Z,5.20
2017-12-26T22:04:57.165Z,4.33
2017-12-26T22:07:24.760Z,4.37
2017-12-26T22:10:00.079Z,2.77
2017-12-26T22:12:27.730Z,5.73
2017-12-26T22:14:55.332Z,4.60
2017-12-26T22:17:22.908Z,6.97
2017-12-26T22:19:51.266Z,5.93
2017-12-26T22:22:18.880Z,12.33
2017-12-26T22:24:49.450Z,9.50
2017-12-26T22:27:17.272Z,4.67
2017-12-26T22:29:44.857Z,4.23
2017-12-26T22:32:12.449Z,4.50
2017-12-26T22:34:40.799Z,4.80
2017-12-26T22:37:08.443Z,3.90
2017-12-26T22:39:36.101Z,3.87
2017-12-26T22:42:03.686Z,3.17
2017-12-26T22:44:31.264Z,2.00
2017-12-26T22:46:58.847Z,2.47
2017-12-26T22:49:27.242Z,6.57
2017-12-26T22:51:55.723Z,6.67
2017-12-26T22:54:23.330Z,5.57
2017-12-26T22:56:50.921Z,7.37
2017-12-26T22:59:19.299Z,5.50
2017-12-26T23:01:46.923Z,10.23
2017-12-26T23:04:14.522Z,3.17
2017-12-26T23:06:42.085Z,6.93
2017-12-26T23:09:09.628Z,2.50
2017-12-26T23:11:37.225Z,7.53
2017-12-26T23:14:11.121Z,10.63
2017-12-26T23:16:44.336Z,12.17
2017-12-26T23:19:11.928Z,4.73
2017-12-26T23:21:39.520Z,5.03
2017-12-26T23:24:12.633Z,5.60
2017-12-26T23:26:46.476Z,9.27
2017-12-26T23:29:19.822Z,2.90
2017-12-26T23:31:52.984Z,5.17
2017-12-26T23:34:26.211Z,2.47
2017-12-26T23:43:08.461Z,4.47
2017-12-26T23:45:42.453Z,8.90
2017-12-26T23:48:15.647Z,2.30
2017-12-26T23:51:01.030Z,14.80
2017-12-26T23:53:34.144Z,6.10
2017-12-26T23:56:08.220Z,5.10
2017-12-26T23:58:50.667Z,3.73
